sensor_id;sensor_type;location;lat;lon;timestamp;pressure;altitude;pressure_sealevel;temperature;humidity
75188;BME280;63762;51.334;22.108;2023-01-29T00:02:25;102528.82;;;0.18;72.10
75188;BME280;63762;51.334;22.108;2023-01-29T00:12:32;102535.94;;;0.13;72.30
75188;BME280;63762;51.334;22.108;2023-01-29T00:22:39;102542.93;;;0.20;71.95
75188;BME280;63762;51.334;22.108;2023-01-29T00:32:46;102529.76;;;0.12;72.24
75188;BME280;63762;51.334;22.108;2023-01-29T00:42:54;102547.44;;;0.09;70.86
75188;BME280;63762;51.334;22.108;2023-01-29T00:53:06;102527.25;;;-0.02;70.13
75188;BME280;63762;51.334;22.108;2023-01-29T01:03:09;102506.96;;;-0.04;71.39
75188;BME280;63762;51.334;22.108;2023-01-29T01:13:15;102495.52;;;-0.05;72.04
75188;BME280;63762;51.334;22.108;2023-01-29T01:23:22;102485.01;;;-0.14;71.45
75188;BME280;63762;51.334;22.108;2023-01-29T01:33:29;102481.63;;;-0.31;71.92
75188;BME280;63762;51.334;22.108;2023-01-29T01:53:55;102497.50;;;-0.32;69.81
75188;BME280;63762;51.334;22.108;2023-01-29T02:04:04;102506.34;;;-0.41;69.24
75188;BME280;63762;51.334;22.108;2023-01-29T02:14:17;102498.48;;;-0.48;70.27
75188;BME280;63762;51.334;22.108;2023-01-29T02:45:09;102484.42;;;-0.55;67.41
75188;BME280;63762;51.334;22.108;2023-01-29T02:55:19;102487.98;;;-0.59;67.79
75188;BME280;63762;51.334;22.108;2023-01-29T03:05:47;102483.55;;;-0.57;67.81
75188;BME280;63762;51.334;22.108;2023-01-29T03:15:44;102493.25;;;-0.56;67.36
75188;BME280;63762;51.334;22.108;2023-01-29T03:25:50;102492.36;;;-0.58;68.30
75188;BME280;63762;51.334;22.108;2023-01-29T03:36:09;102490.70;;;-0.75;68.90
75188;BME280;63762;51.334;22.108;2023-01-29T04:06:43;102483.73;;;-0.91;67.08
75188;BME280;63762;51.334;22.108;2023-01-29T04:16:52;102460.90;;;-1.03;67.85
75188;BME280;63762;51.334;22.108;2023-01-29T04:27:04;102460.01;;;-1.02;66.56
75188;BME280;63762;51.334;22.108;2023-01-29T04:37:20;102469.77;;;-1.13;67.55
75188;BME280;63762;51.334;22.108;2023-01-29T04:47:29;102464.50;;;-1.19;68.11
75188;BME280;63762;51.334;22.108;2023-01-29T05:07:46;102460.17;;;-1.41;65.87
75188;BME280;63762;51.334;22.108;2023-01-29T05:17:48;102470.72;;;-1.35;65.78
75188;BME280;63762;51.334;22.108;2023-01-29T05:27:50;102469.91;;;-1.55;64.62
75188;BME280;63762;51.334;22.108;2023-01-29T05:38:03;102454.87;;;-1.30;64.35
75188;BME280;63762;51.334;22.108;2023-01-29T05:48:04;102449.59;;;-1.32;64.80
75188;BME280;63762;51.334;22.108;2023-01-29T05:58:05;102465.45;;;-1.38;66.07
75188;BME280;63762;51.334;22.108;2023-01-29T06:08:07;102459.30;;;-1.34;65.01
75188;BME280;63762;51.334;22.108;2023-01-29T06:18:08;102444.30;;;-1.29;64.82
75188;BME280;63762;51.334;22.108;2023-01-29T06:28:09;102455.77;;;-1.33;64.77
75188;BME280;63762;51.334;22.108;2023-01-29T06:38:10;102451.39;;;-1.35;65.31
75188;BME280;63762;51.334;22.108;2023-01-29T06:48:11;102459.23;;;-1.22;64.84
75188;BME280;63762;51.334;22.108;2023-01-29T06:58:12;102469.81;;;-1.29;64.91
75188;BME280;63762;51.334;22.108;2023-01-29T07:08:13;102457.49;;;-1.29;65.45
75188;BME280;63762;51.334;22.108;2023-01-29T07:18:14;102468.04;;;-1.23;65.10
75188;BME280;63762;51.334;22.108;2023-01-29T07:28:19;102471.55;;;-1.18;66.24
75188;BME280;63762;51.334;22.108;2023-01-29T07:38:23;102467.08;;;-1.04;66.05
75188;BME280;63762;51.334;22.108;2023-01-29T07:48:24;102478.47;;;-0.93;65.86
75188;BME280;63762;51.334;22.108;2023-01-29T07:58:25;102466.97;;;-0.84;65.86
75188;BME280;63762;51.334;22.108;2023-01-29T08:08:26;102472.22;;;-0.77;65.61
75188;BME280;63762;51.334;22.108;2023-01-29T08:18:27;102463.37;;;-0.71;66.19
75188;BME280;63762;51.334;22.108;2023-01-29T08:28:28;102461.59;;;-0.68;66.94
75188;BME280;63762;51.334;22.108;2023-01-29T08:38:29;102468.58;;;-0.59;65.99
75188;BME280;63762;51.334;22.108;2023-01-29T08:48:37;102456.25;;;-0.57;65.92
75188;BME280;63762;51.334;22.108;2023-01-29T08:58:43;102435.09;;;-0.54;66.37
75188;BME280;63762;51.334;22.108;2023-01-29T09:08:51;102448.30;;;-0.53;66.09
75188;BME280;63762;51.334;22.108;2023-01-29T09:18:58;102431.46;;;-0.40;66.01
75188;BME280;63762;51.334;22.108;2023-01-29T09:29:05;102434.78;;;-0.15;65.63
75188;BME280;63762;51.334;22.108;2023-01-29T09:39:12;102417.99;;;-0.13;65.51
75188;BME280;63762;51.334;22.108;2023-01-29T09:49:24;102401.99;;;0.03;64.13
75188;BME280;63762;51.334;22.108;2023-01-29T09:59:29;102372.25;;;-0.21;65.41
75188;BME280;63762;51.334;22.108;2023-01-29T10:30:06;102325.46;;;-0.16;67.17
75188;BME280;63762;51.334;22.108;2023-01-29T10:40:19;102299.66;;;0.04;64.87
75188;BME280;63762;51.334;22.108;2023-01-29T11:00:38;102279.21;;;0.20;64.10
75188;BME280;63762;51.334;22.108;2023-01-29T11:21:01;102260.41;;;0.40;64.26
75188;BME280;63762;51.334;22.108;2023-01-29T11:33:36;102235.45;;;0.57;64.26
75188;BME280;63762;51.334;22.108;2023-01-29T11:43:43;102226.98;;;0.33;63.32
75188;BME280;63762;51.334;22.108;2023-01-29T11:53:56;102222.72;;;0.23;64.42
75188;BME280;63762;51.334;22.108;2023-01-29T12:04:00;102207.98;;;0.03;65.51
75188;BME280;63762;51.334;22.108;2023-01-29T12:44:55;102154.45;;;0.46;65.28
75188;BME280;63762;51.334;22.108;2023-01-29T12:55:00;102149.45;;;0.28;65.46
75188;BME280;63762;51.334;22.108;2023-01-29T13:05:19;102127.27;;;0.35;66.26
75188;BME280;63762;51.334;22.108;2023-01-29T13:25:28;102098.21;;;0.82;66.32
75188;BME280;63762;51.334;22.108;2023-01-29T13:35:30;102082.93;;;0.49;68.89
75188;BME280;63762;51.334;22.108;2023-01-29T13:45:42;102099.04;;;0.34;69.86
75188;BME280;63762;51.334;22.108;2023-01-29T13:55:43;102099.95;;;0.33;69.21
75188;BME280;63762;51.334;22.108;2023-01-29T14:05:57;102100.02;;;0.28;69.83
75188;BME280;63762;51.334;22.108;2023-01-29T14:26:21;102094.45;;;0.46;69.64
75188;BME280;63762;51.334;22.108;2023-01-29T14:36:24;102092.88;;;0.35;70.24
75188;BME280;63762;51.334;22.108;2023-01-29T14:56:45;102082.29;;;0.35;70.06
75188;BME280;63762;51.334;22.108;2023-01-29T15:17:15;102085.71;;;0.40;71.07
75188;BME280;63762;51.334;22.108;2023-01-29T15:27:19;102100.04;;;0.27;71.06
75188;BME280;63762;51.334;22.108;2023-01-29T15:37:26;102088.70;;;0.20;71.30
75188;BME280;63762;51.334;22.108;2023-01-29T15:47:30;102072.75;;;0.25;71.90
75188;BME280;63762;51.334;22.108;2023-01-29T15:57:36;102068.29;;;0.27;72.33
75188;BME280;63762;51.334;22.108;2023-01-29T16:07:40;102064.49;;;0.43;71.98
75188;BME280;63762;51.334;22.108;2023-01-29T16:17:43;102078.43;;;0.54;70.83
75188;BME280;63762;51.334;22.108;2023-01-29T16:27:45;102087.60;;;0.33;71.57
75188;BME280;63762;51.334;22.108;2023-01-29T16:37:47;102056.88;;;0.25;73.10
75188;BME280;63762;51.334;22.108;2023-01-29T16:47:59;102065.14;;;0.03;76.12
75188;BME280;63762;51.334;22.108;2023-01-29T16:58:11;102059.16;;;-0.08;77.39
75188;BME280;63762;51.334;22.108;2023-01-29T17:08:29;102061.78;;;-0.06;77.98
75188;BME280;63762;51.334;22.108;2023-01-29T17:18:29;102043.88;;;0.10;77.50
75188;BME280;63762;51.334;22.108;2023-01-29T17:28:30;102042.13;;;0.10;78.28
75188;BME280;63762;51.334;22.108;2023-01-29T17:38:32;102041.51;;;-0.09;80.73
75188;BME280;63762;51.334;22.108;2023-01-29T17:48:33;102050.35;;;-0.10;81.10
75188;BME280;63762;51.334;22.108;2023-01-29T17:58:34;102041.72;;;-0.21;82.57
75188;BME280;63762;51.334;22.108;2023-01-29T18:08:37;102044.41;;;-0.24;82.88
75188;BME280;63762;51.334;22.108;2023-01-29T18:18:39;101991.48;;;-0.21;81.96
75188;BME280;63762;51.334;22.108;2023-01-29T18:28:40;101982.55;;;-0.14;82.11
75188;BME280;63762;51.334;22.108;2023-01-29T18:38:43;101962.07;;;-0.03;81.64
75188;BME280;63762;51.334;22.108;2023-01-29T18:48:44;101954.90;;;0.06;80.97
75188;BME280;63762;51.334;22.108;2023-01-29T18:58:54;101923.88;;;0.14;80.02
75188;BME280;63762;51.334;22.108;2023-01-29T19:08:58;101923.11;;;0.09;78.88
75188;BME280;63762;51.334;22.108;2023-01-29T19:19:05;101900.96;;;0.14;78.90
75188;BME280;63762;51.334;22.108;2023-01-29T19:29:12;101911.37;;;0.23;78.49
75188;BME280;63762;51.334;22.108;2023-01-29T19:39:21;101908.11;;;0.08;78.92
75188;BME280;63762;51.334;22.108;2023-01-29T19:49:26;101900.93;;;0.16;78.72
75188;BME280;63762;51.334;22.108;2023-01-29T19:59:33;101908.99;;;0.08;78.72
75188;BME280;63762;51.334;22.108;2023-01-29T20:09:40;101898.59;;;-0.03;79.78
75188;BME280;63762;51.334;22.108;2023-01-29T20:19:48;101904.64;;;0.06;79.47
75188;BME280;63762;51.334;22.108;2023-01-29T20:29:55;101886.26;;;-0.02;79.83
75188;BME280;63762;51.334;22.108;2023-01-29T20:40:04;101876.59;;;-0.03;79.64
75188;BME280;63762;51.334;22.108;2023-01-29T20:50:11;101873.06;;;-0.04;79.41
75188;BME280;63762;51.334;22.108;2023-01-29T21:00:17;101846.66;;;-0.07;79.62
75188;BME280;63762;51.334;22.108;2023-01-29T21:10:23;101850.16;;;-0.05;79.44
75188;BME280;63762;51.334;22.108;2023-01-29T21:20:31;101836.09;;;-0.07;79.14
75188;BME280;63762;51.334;22.108;2023-01-29T21:30:38;101830.75;;;-0.04;79.18
75188;BME280;63762;51.334;22.108;2023-01-29T21:40:45;101830.77;;;-0.05;79.31
75188;BME280;63762;51.334;22.108;2023-01-29T21:50:52;101808.79;;;-0.09;80.04
75188;BME280;63762;51.334;22.108;2023-01-29T22:00:59;101804.07;;;0.09;79.58
75188;BME280;63762;51.334;22.108;2023-01-29T22:11:07;101781.91;;;0.14;78.74
75188;BME280;63762;51.334;22.108;2023-01-29T22:21:13;101772.67;;;-0.10;79.93
75188;BME280;63762;51.334;22.108;2023-01-29T22:31:21;101767.21;;;-0.01;80.06
75188;BME280;63762;51.334;22.108;2023-01-29T22:41:28;101759.25;;;0.01;79.68
75188;BME280;63762;51.334;22.108;2023-01-29T22:51:35;101730.13;;;0.03;79.67
75188;BME280;63762;51.334;22.108;2023-01-29T23:01:42;101726.63;;;0.00;80.20
75188;BME280;63762;51.334;22.108;2023-01-29T23:11:49;101694.86;;;0.02;80.06
75188;BME280;63762;51.334;22.108;2023-01-29T23:21:56;101682.33;;;0.12;79.98
75188;BME280;63762;51.334;22.108;2023-01-29T23:32:04;101659.44;;;0.09;80.22
75188;BME280;63762;51.334;22.108;2023-01-29T23:42:11;101642.06;;;-0.03;81.24
75188;BME280;63762;51.334;22.108;2023-01-29T23:52:18;101616.20;;;0.12;81.15
